createdAt,value
2023-05-24T00:01:59.838Z,9.09
2023-05-24T00:04:30.344Z,9.05
2023-05-24T00:06:58.190Z,9.12
2023-05-24T00:09:24.755Z,9.14
2023-05-24T00:11:51.265Z,9.11
2023-05-24T00:14:17.763Z,9.01
2023-05-24T00:16:46.409Z,9.05
2023-05-24T00:19:18.212Z,9.02
2023-05-24T00:21:46.056Z,8.98
2023-05-24T00:24:12.733Z,9.00
2023-05-24T00:26:39.630Z,9.04
2023-05-24T00:29:06.316Z,8.98
2023-05-24T00:31:32.970Z,8.98
2023-05-24T00:33:59.495Z,8.95
2023-05-24T00:36:26.023Z,9.03
2023-05-24T00:38:53.654Z,9.11
2023-05-24T00:41:20.271Z,9.09
2023-05-24T00:43:46.792Z,9.04
2023-05-24T00:46:19.018Z,9.09
2023-05-24T00:48:46.591Z,9.05
2023-05-24T00:51:14.739Z,9.02
2023-05-24T00:53:47.363Z,8.98
2023-05-24T00:56:15.695Z,8.93
2023-05-24T00:58:43.139Z,8.90
2023-05-24T01:01:09.770Z,8.95
2023-05-24T01:03:36.443Z,8.97
2023-05-24T01:10:06.319Z,8.96
2023-05-24T01:13:04.635Z,8.93
2023-05-24T01:15:56.816Z,8.96
2023-05-24T01:18:30.410Z,8.94
2023-05-24T01:21:14.404Z,9.02
2023-05-24T01:24:04.551Z,9.00
2023-05-24T01:26:30.990Z,8.98
2023-05-24T01:29:00.065Z,9.01
2023-05-24T01:31:26.975Z,9.00
2023-05-24T01:33:53.530Z,9.03
2023-05-24T01:36:20.047Z,8.96
2023-05-24T01:38:46.991Z,9.05
2023-05-24T01:41:27.090Z,8.82
2023-05-24T01:44:13.368Z,8.80
2023-05-24T01:46:40.066Z,8.90
2023-05-24T01:49:13.389Z,8.89
2023-05-24T01:52:12.571Z,9.00
2023-05-24T01:54:47.733Z,8.90
2023-05-24T01:57:15.456Z,8.94
2023-05-24T01:59:43.862Z,8.98
2023-05-24T02:02:11.442Z,9.02
2023-05-24T02:04:38.438Z,8.99
2023-05-24T02:07:05.291Z,9.00
2023-05-24T02:09:32.039Z,9.04
2023-05-24T02:11:58.553Z,8.93
2023-05-24T02:14:26.347Z,8.97
2023-05-24T02:16:52.921Z,9.01
2023-05-24T02:19:19.594Z,8.99
2023-05-24T02:21:46.259Z,8.97
2023-05-24T02:24:12.771Z,9.01
2023-05-24T02:26:39.458Z,9.00
2023-05-24T02:29:06.144Z,8.97
2023-05-24T02:31:32.776Z,8.91
2023-05-24T02:33:59.301Z,8.81
2023-05-24T02:36:25.925Z,8.79
2023-05-24T02:38:52.464Z,9.00
2023-05-24T02:41:19.691Z,9.01
2023-05-24T02:43:46.915Z,9.01
2023-05-24T02:46:14.052Z,8.92
2023-05-24T02:48:40.736Z,8.87
2023-05-24T02:51:07.314Z,8.86
2023-05-24T02:53:33.921Z,8.96
2023-05-24T02:56:00.649Z,8.88
2023-05-24T02:58:30.514Z,8.96
2023-05-24T03:00:57.151Z,8.98
2023-05-24T03:03:23.784Z,8.98
2023-05-24T03:05:50.472Z,8.92
2023-05-24T03:08:16.982Z,8.96
2023-05-24T03:10:43.930Z,8.89
2023-05-24T03:13:10.748Z,8.85
2023-05-24T03:15:37.299Z,8.91
2023-05-24T03:18:04.030Z,8.96
2023-05-24T03:20:31.171Z,8.92
2023-05-24T03:22:57.951Z,8.92
2023-05-24T03:25:24.473Z,9.01
2023-05-24T03:27:50.925Z,8.88
2023-05-24T03:30:17.425Z,8.93
2023-05-24T03:32:43.965Z,8.95
2023-05-24T03:35:12.138Z,8.95
2023-05-24T03:37:38.880Z,8.97
2023-05-24T03:40:06.660Z,8.92
2023-05-24T03:42:33.139Z,8.95
2023-05-24T03:44:59.627Z,8.90
2023-05-24T03:47:26.191Z,8.86
2023-05-24T03:49:52.710Z,8.93
2023-05-24T03:52:19.163Z,8.91
2023-05-24T03:54:46.160Z,8.92
2023-05-24T03:57:12.717Z,8.95
2023-05-24T03:59:41.104Z,8.92
2023-05-24T04:02:08.227Z,8.94
2023-05-24T04:04:34.996Z,9.04
2023-05-24T04:07:01.518Z,8.95
2023-05-24T04:09:28.020Z,8.98
2023-05-24T04:11:54.727Z,9.06
2023-05-24T04:14:21.874Z,9.06
2023-05-24T04:16:48.410Z,9.05
2023-05-24T04:19:15.021Z,9.04
2023-05-24T04:21:41.706Z,9.07
2023-05-24T04:24:08.311Z,8.99
2023-05-24T04:26:34.937Z,8.97
2023-05-24T04:29:01.767Z,8.98
2023-05-24T04:31:30.350Z,8.96
2023-05-24T04:33:59.121Z,8.98
2023-05-24T04:36:26.175Z,8.95
2023-05-24T04:38:56.167Z,9.00
2023-05-24T04:41:22.795Z,9.13
2023-05-24T04:43:50.337Z,9.06
2023-05-24T04:46:16.999Z,9.16
2023-05-24T04:48:43.603Z,9.08
2023-05-24T04:51:10.317Z,9.09
2023-05-24T04:53:37.501Z,9.13
2023-05-24T04:56:04.067Z,9.05
2023-05-24T04:58:30.780Z,9.05
2023-05-24T05:00:57.276Z,9.06
2023-05-24T05:03:23.854Z,9.13
2023-05-24T05:05:50.724Z,9.12
2023-05-24T05:08:17.224Z,9.14
2023-05-24T05:10:44.327Z,9.14
2023-05-24T05:13:13.315Z,9.08
2023-05-24T05:15:41.615Z,9.05
2023-05-24T05:18:09.354Z,9.17
2023-05-24T05:20:36.111Z,9.22
2023-05-24T05:23:03.255Z,9.14
2023-05-24T05:25:30.986Z,9.12
2023-05-24T05:27:57.444Z,9.07
2023-05-24T05:30:23.917Z,9.22
2023-05-24T05:32:50.615Z,9.24
2023-05-24T05:35:17.216Z,9.14
2023-05-24T05:37:43.691Z,9.15
2023-05-24T05:40:10.633Z,8.98
2023-05-24T05:42:37.301Z,9.06
2023-05-24T05:45:04.072Z,9.20
2023-05-24T05:47:30.847Z,9.23
2023-05-24T05:49:57.347Z,9.18
2023-05-24T05:52:23.947Z,9.25
2023-05-24T05:54:51.000Z,9.12
2023-05-24T05:57:19.628Z,9.21
2023-05-24T05:59:46.131Z,9.31
2023-05-24T06:02:12.902Z,9.12
2023-05-24T06:04:39.494Z,9.22
2023-05-24T06:07:06.325Z,9.43
2023-05-24T06:09:32.781Z,9.49
2023-05-24T06:11:59.275Z,9.63
2023-05-24T06:14:25.781Z,9.71
2023-05-24T06:16:54.563Z,9.73
2023-05-24T06:19:21.084Z,9.84
2023-05-24T06:21:48.515Z,9.74
2023-05-24T06:24:15.600Z,9.85
2023-05-24T06:26:42.174Z,9.79
2023-05-24T06:29:09.806Z,9.72
2023-05-24T06:31:36.427Z,9.85
2023-05-24T06:34:04.704Z,9.72
2023-05-24T06:36:35.480Z,9.87
2023-05-24T06:39:02.815Z,9.87
2023-05-24T06:41:29.319Z,10.16
2023-05-24T06:43:55.912Z,9.91
2023-05-24T06:46:22.436Z,9.80
2023-05-24T06:48:49.054Z,10.02
2023-05-24T06:51:15.819Z,9.76
2023-05-24T06:53:42.317Z,9.81
2023-05-24T06:56:09.886Z,9.85
2023-05-24T06:58:36.663Z,9.84
2023-05-24T07:01:05.103Z,9.86
2023-05-24T07:03:32.462Z,9.84
2023-05-24T07:05:59.078Z,9.86
2023-05-24T07:08:25.695Z,9.95
2023-05-24T07:10:53.569Z,9.89
2023-05-24T07:13:20.116Z,10.07
2023-05-24T07:15:47.100Z,10.00
2023-05-24T07:18:14.439Z,10.14
2023-05-24T07:20:41.355Z,10.17
2023-05-24T07:23:08.386Z,10.24
2023-05-24T07:25:34.899Z,10.30
2023-05-24T07:28:01.361Z,10.30
2023-05-24T07:30:32.568Z,10.25
2023-05-24T07:32:59.746Z,10.34
2023-05-24T07:35:26.374Z,10.56
2023-05-24T07:37:52.962Z,10.43
2023-05-24T07:40:19.442Z,10.45
2023-05-24T07:42:47.566Z,10.34
2023-05-24T07:45:15.258Z,10.44
2023-05-24T07:47:41.902Z,10.54
2023-05-24T07:50:08.938Z,10.55
2023-05-24T07:52:35.431Z,10.46
2023-05-24T07:55:02.040Z,10.50
2023-05-24T07:57:28.589Z,10.58
2023-05-24T07:59:55.152Z,10.48
2023-05-24T08:02:21.719Z,10.54
2023-05-24T08:04:48.286Z,10.66
2023-05-24T08:07:16.178Z,10.68
2023-05-24T08:09:42.689Z,10.61
2023-05-24T08:12:09.315Z,10.65
2023-05-24T08:14:35.817Z,10.63
2023-05-24T08:17:02.306Z,10.85
2023-05-24T08:19:28.863Z,11.04
2023-05-24T08:21:57.319Z,11.18
2023-05-24T08:24:24.014Z,11.17
2023-05-24T08:26:52.768Z,11.19
2023-05-24T08:29:19.299Z,11.13
2023-05-24T08:31:45.872Z,11.34
2023-05-24T08:34:12.884Z,11.40
2023-05-24T08:36:40.857Z,11.27
2023-05-24T08:39:07.357Z,11.38
2023-05-24T08:41:37.462Z,11.37
2023-05-24T08:44:06.584Z,11.38
2023-05-24T08:46:37.153Z,11.36
2023-05-24T08:49:04.196Z,11.45
2023-05-24T08:51:32.864Z,11.26
2023-05-24T08:54:02.802Z,11.26
2023-05-24T08:56:30.362Z,11.31
2023-05-24T08:58:56.890Z,11.26
2023-05-24T09:01:25.062Z,11.61
2023-05-24T09:03:54.141Z,11.69
2023-05-24T09:06:21.487Z,11.74
2023-05-24T09:08:52.403Z,11.82
2023-05-24T09:11:19.600Z,11.86
2023-05-24T09:13:46.154Z,11.90
2023-05-24T09:16:12.841Z,12.10
2023-05-24T09:18:42.663Z,11.85
2023-05-24T09:21:11.624Z,11.92
2023-05-24T09:23:39.083Z,12.16
2023-05-24T09:26:09.819Z,12.38
2023-05-24T09:28:37.258Z,12.26
2023-05-24T09:31:07.423Z,12.37
2023-05-24T09:33:35.312Z,12.15
2023-05-24T09:36:04.551Z,12.03
2023-05-24T09:38:31.159Z,12.11
2023-05-24T09:41:08.672Z,12.04
2023-05-24T09:43:47.900Z,12.03
2023-05-24T09:46:20.461Z,12.01
2023-05-24T09:48:59.941Z,11.96
2023-05-24T09:51:27.117Z,11.81
2023-05-24T09:53:57.431Z,12.04
2023-05-24T09:56:24.811Z,11.99
2023-05-24T09:58:51.592Z,12.02
2023-05-24T10:01:19.160Z,12.06
2023-05-24T10:03:56.328Z,11.95
2023-05-24T10:06:24.021Z,12.19
2023-05-24T10:08:52.245Z,12.05
2023-05-24T10:11:19.155Z,11.99
2023-05-24T10:13:45.613Z,12.13
2023-05-24T10:16:12.896Z,12.17
2023-05-24T10:18:39.881Z,12.08
2023-05-24T10:21:08.932Z,12.09
2023-05-24T10:23:39.534Z,12.18
2023-05-24T10:26:09.045Z,12.05
2023-05-24T10:28:41.054Z,11.91
2023-05-24T10:31:17.470Z,11.96
2023-05-24T10:33:46.417Z,12.17
2023-05-24T10:36:14.223Z,12.21
2023-05-24T10:38:41.096Z,12.19
2023-05-24T10:41:08.473Z,12.38
2023-05-24T10:43:38.484Z,12.33
2023-05-24T10:46:10.573Z,12.31
2023-05-24T10:48:41.424Z,12.46
2023-05-24T10:51:32.890Z,12.72
2023-05-24T10:54:14.190Z,12.62
2023-05-24T10:56:43.138Z,12.47
2023-05-24T10:59:09.694Z,12.73
2023-05-24T11:01:36.356Z,13.10
2023-05-24T11:04:12.923Z,13.54
2023-05-24T11:07:00.529Z,13.78
2023-05-24T11:09:27.961Z,14.16
2023-05-24T11:11:57.442Z,13.79
2023-05-24T11:14:27.446Z,13.46
2023-05-24T11:16:54.544Z,13.61
2023-05-24T11:19:22.523Z,13.72
2023-05-24T11:21:53.793Z,13.80
2023-05-24T11:24:22.018Z,13.47
2023-05-24T11:26:50.195Z,13.57
2023-05-24T11:29:22.776Z,13.55
2023-05-24T11:31:54.301Z,13.27
2023-05-24T11:34:21.692Z,13.51
2023-05-24T11:36:49.224Z,13.45
2023-05-24T11:39:16.621Z,13.35
2023-05-24T11:41:43.779Z,13.35
2023-05-24T11:44:11.618Z,13.41
2023-05-24T11:46:39.490Z,13.19
2023-05-24T11:49:06.943Z,13.31
2023-05-24T11:51:35.802Z,13.29
2023-05-24T11:54:02.297Z,13.42
2023-05-24T11:56:32.447Z,13.40
2023-05-24T11:59:06.180Z,13.72
2023-05-24T12:01:32.938Z,13.92
2023-05-24T12:03:59.857Z,13.70
2023-05-24T12:06:35.643Z,13.89
2023-05-24T12:09:05.499Z,13.86
2023-05-24T12:11:32.663Z,13.49
2023-05-24T12:13:59.459Z,13.46
2023-05-24T12:16:27.197Z,13.57
2023-05-24T12:19:04.174Z,13.64
2023-05-24T12:21:35.347Z,13.54
2023-05-24T12:24:15.402Z,13.38
2023-05-24T12:26:48.045Z,13.48
2023-05-24T12:29:15.101Z,13.37
2023-05-24T12:31:43.406Z,13.68
2023-05-24T12:34:14.475Z,13.85
2023-05-24T12:36:43.292Z,13.58
2023-05-24T12:39:24.256Z,13.85
2023-05-24T12:41:52.792Z,13.68
2023-05-24T12:44:27.386Z,13.78
2023-05-24T12:46:55.720Z,13.80
2023-05-24T12:49:23.396Z,13.87
2023-05-24T12:51:50.879Z,13.88
2023-05-24T12:54:25.954Z,14.00
2023-05-24T12:56:55.815Z,14.21
2023-05-24T12:59:23.373Z,13.92
2023-05-24T13:01:53.151Z,14.21
2023-05-24T13:04:22.162Z,14.22
2023-05-24T13:06:49.145Z,14.14
2023-05-24T13:09:18.858Z,14.29
2023-05-24T13:11:47.306Z,14.37
2023-05-24T13:14:15.571Z,14.51
2023-05-24T13:16:42.402Z,14.75
2023-05-24T13:19:09.007Z,14.37
2023-05-24T13:21:35.660Z,14.74
2023-05-24T13:24:02.347Z,14.55
2023-05-24T13:26:29.736Z,14.54
2023-05-24T13:29:21.882Z,14.21
2023-05-24T13:31:43.000Z,14.44
2023-05-24T13:34:12.511Z,14.47
2023-05-24T13:36:39.513Z,14.36
2023-05-24T13:41:37.703Z,14.10
2023-05-24T13:44:04.701Z,14.22
2023-05-24T13:46:31.315Z,14.24
2023-05-24T13:48:58.676Z,14.25
2023-05-24T13:51:27.022Z,14.48
2023-05-24T13:53:55.616Z,14.34
2023-05-24T13:56:24.174Z,14.34
2023-05-24T13:58:50.932Z,14.39
2023-05-24T14:01:17.495Z,14.32
2023-05-24T14:03:43.993Z,14.33
2023-05-24T14:06:11.008Z,14.27
2023-05-24T14:08:37.592Z,14.25
2023-05-24T14:11:04.339Z,14.36
2023-05-24T14:16:00.651Z,14.19
2023-05-24T14:18:27.315Z,14.15
2023-05-24T14:20:53.890Z,14.01
2023-05-24T14:23:21.006Z,13.83
2023-05-24T14:25:47.563Z,13.94
2023-05-24T14:28:14.066Z,13.92
2023-05-24T14:30:41.936Z,13.85
2023-05-24T14:33:09.266Z,13.68
2023-05-24T14:35:39.616Z,13.70
2023-05-24T14:38:08.733Z,13.63
2023-05-24T14:40:37.091Z,13.49
2023-05-24T14:43:04.637Z,13.50
2023-05-24T14:45:31.339Z,13.63
2023-05-24T14:47:58.199Z,13.78
2023-05-24T14:50:24.807Z,13.69
2023-05-24T14:52:53.180Z,13.58
2023-05-24T14:55:22.036Z,13.71
2023-05-24T14:57:49.493Z,13.71
2023-05-24T15:00:17.541Z,13.78
2023-05-24T15:02:45.759Z,13.85
2023-05-24T15:05:12.278Z,13.90
2023-05-24T15:07:38.816Z,13.43
2023-05-24T15:10:05.808Z,13.63
2023-05-24T15:12:32.293Z,13.97
2023-05-24T15:14:58.993Z,14.16
2023-05-24T15:17:26.554Z,14.29
2023-05-24T15:19:56.704Z,14.40
2023-05-24T15:22:23.622Z,14.60
2023-05-24T15:24:50.308Z,14.56
2023-05-24T15:27:17.329Z,14.34
2023-05-24T15:29:43.883Z,14.39
2023-05-24T15:32:10.488Z,14.45
2023-05-24T15:34:37.020Z,14.39
2023-05-24T15:37:03.535Z,14.44
2023-05-24T15:39:29.994Z,14.47
2023-05-24T15:41:57.010Z,14.41
2023-05-24T15:44:23.520Z,14.19
2023-05-24T15:46:50.053Z,14.07
2023-05-24T15:49:16.628Z,14.08
2023-05-24T15:54:12.563Z,13.73
2023-05-24T15:56:39.005Z,13.85
2023-05-24T15:59:05.525Z,13.72
2023-05-24T16:01:32.091Z,13.68
2023-05-24T16:03:58.834Z,13.80
2023-05-24T16:06:25.411Z,13.86
2023-05-24T16:08:51.930Z,13.93
2023-05-24T16:11:20.933Z,13.95
2023-05-24T16:13:50.047Z,13.91
2023-05-24T16:16:16.810Z,13.75
2023-05-24T16:18:43.445Z,13.67
2023-05-24T16:21:10.398Z,13.81
2023-05-24T16:23:37.521Z,13.73
2023-05-24T16:26:04.190Z,13.68
2023-05-24T16:28:30.754Z,13.64
2023-05-24T16:30:58.695Z,13.70
2023-05-24T16:33:25.351Z,13.68
2023-05-24T16:35:55.789Z,13.57
2023-05-24T16:38:23.446Z,13.56
2023-05-24T16:40:50.456Z,13.56
2023-05-24T16:43:17.719Z,13.55
2023-05-24T16:45:44.802Z,13.42
2023-05-24T16:48:12.126Z,13.48
2023-05-24T16:50:39.316Z,13.34
2023-05-24T16:53:06.808Z,13.40
2023-05-24T16:55:33.524Z,13.38
2023-05-24T16:58:00.307Z,13.27
2023-05-24T17:00:26.901Z,13.38
2023-05-24T17:02:54.639Z,13.39
2023-05-24T17:05:21.371Z,13.36
2023-05-24T17:07:47.997Z,13.37
2023-05-24T17:10:14.570Z,13.33
2023-05-24T17:12:41.305Z,13.24
2023-05-24T17:15:08.297Z,13.21
2023-05-24T17:17:34.959Z,13.17
2023-05-24T17:20:02.879Z,13.15
2023-05-24T17:22:29.582Z,13.08
2023-05-24T17:24:56.186Z,13.21
2023-05-24T17:27:22.853Z,13.15
2023-05-24T17:29:49.503Z,13.02
2023-05-24T17:32:16.355Z,13.08
2023-05-24T17:34:42.933Z,13.04
2023-05-24T17:37:09.520Z,13.00
2023-05-24T17:39:36.105Z,12.99
2023-05-24T17:42:02.956Z,13.03
2023-05-24T17:44:29.560Z,13.01
2023-05-24T17:46:57.429Z,12.93
2023-05-24T17:49:24.442Z,12.96
2023-05-24T17:51:50.962Z,12.95
2023-05-24T17:54:17.490Z,12.92
2023-05-24T17:56:44.170Z,12.87
2023-05-24T17:59:11.041Z,12.78
2023-05-24T18:01:38.229Z,12.81
2023-05-24T18:04:07.597Z,12.80
2023-05-24T18:06:34.871Z,12.74
2023-05-24T18:09:01.336Z,12.76
2023-05-24T18:11:28.481Z,12.76
2023-05-24T18:13:54.984Z,12.74
2023-05-24T18:16:21.577Z,12.71
2023-05-24T18:18:48.059Z,12.73
2023-05-24T18:21:14.742Z,12.65
2023-05-24T18:23:42.397Z,12.66
2023-05-24T18:26:10.777Z,12.65
2023-05-24T18:28:38.608Z,12.63
2023-05-24T18:31:08.427Z,12.62
2023-05-24T18:33:35.186Z,12.56
2023-05-24T18:36:02.086Z,12.53
2023-05-24T18:38:28.560Z,12.53
2023-05-24T18:40:55.142Z,12.49
2023-05-24T18:43:21.784Z,12.47
2023-05-24T18:45:48.551Z,12.42
2023-05-24T18:48:15.093Z,12.35
2023-05-24T18:50:41.608Z,12.34
2023-05-24T18:53:09.438Z,12.24
2023-05-24T18:55:36.109Z,12.24
2023-05-24T18:58:02.627Z,12.21
2023-05-24T19:00:29.148Z,12.21
2023-05-24T19:02:56.403Z,12.18
2023-05-24T19:05:22.938Z,12.12
2023-05-24T19:07:49.662Z,12.01
2023-05-24T19:10:16.326Z,11.91
2023-05-24T19:12:42.823Z,11.87
2023-05-24T19:15:09.618Z,11.82
2023-05-24T19:17:36.167Z,11.79
2023-05-24T19:20:03.222Z,11.76
2023-05-24T19:22:29.934Z,11.72
2023-05-24T19:24:57.099Z,11.70
2023-05-24T19:27:24.570Z,11.66
2023-05-24T19:29:51.165Z,11.58
2023-05-24T19:32:18.380Z,11.57
2023-05-24T19:34:45.136Z,11.57
2023-05-24T19:37:11.703Z,11.50
2023-05-24T19:39:38.895Z,11.46
2023-05-24T19:42:06.596Z,11.42
2023-05-24T19:44:33.080Z,11.38
2023-05-24T19:46:59.597Z,11.36
2023-05-24T19:49:26.229Z,11.33
2023-05-24T19:51:52.751Z,11.30
2023-05-24T19:54:19.341Z,11.24
2023-05-24T19:56:49.797Z,11.26
2023-05-24T19:59:17.447Z,11.20
2023-05-24T20:01:44.428Z,11.21
2023-05-24T20:04:12.149Z,11.18
2023-05-24T20:06:38.987Z,11.15
2023-05-24T20:09:05.684Z,11.11
2023-05-24T20:11:32.259Z,11.08
2023-05-24T20:13:59.880Z,11.06
2023-05-24T20:16:27.341Z,11.06
2023-05-24T20:18:53.865Z,10.99
2023-05-24T20:21:20.851Z,10.95
2023-05-24T20:23:47.347Z,10.92
2023-05-24T20:26:13.888Z,10.91
2023-05-24T20:28:40.402Z,10.88
2023-05-24T20:31:07.181Z,10.86
2023-05-24T20:33:37.909Z,10.84
2023-05-24T20:36:05.403Z,10.79
2023-05-24T20:38:32.071Z,10.76
2023-05-24T20:40:58.727Z,10.65
2023-05-24T20:43:25.267Z,10.66
2023-05-24T20:45:52.070Z,10.51
2023-05-24T20:48:19.163Z,10.62
2023-05-24T20:50:45.793Z,10.60
2023-05-24T20:53:12.366Z,10.58
2023-05-24T20:55:38.876Z,10.59
2023-05-24T20:58:05.516Z,10.56
2023-05-24T21:00:31.988Z,10.56
2023-05-24T21:02:58.530Z,10.58
2023-05-24T21:05:25.101Z,10.53
2023-05-24T21:07:51.617Z,10.52
2023-05-24T21:10:18.750Z,10.46
2023-05-24T21:12:46.461Z,10.43
2023-05-24T21:15:12.992Z,10.39
2023-05-24T21:17:39.823Z,10.41
2023-05-24T21:20:07.590Z,10.36
2023-05-24T21:22:34.154Z,10.34
2023-05-24T21:25:00.696Z,10.17
2023-05-24T21:27:27.493Z,10.25
2023-05-24T21:29:53.962Z,10.13
2023-05-24T21:32:20.774Z,10.25
2023-05-24T21:34:47.313Z,10.27
2023-05-24T21:37:13.802Z,10.26
2023-05-24T21:39:40.362Z,10.14
2023-05-24T21:42:07.026Z,10.03
2023-05-24T21:44:33.497Z,10.18
2023-05-24T21:47:00.106Z,10.25
2023-05-24T21:49:27.610Z,10.23
2023-05-24T21:51:54.147Z,10.21
2023-05-24T21:54:20.836Z,10.17
2023-05-24T21:56:47.346Z,10.17
2023-05-24T21:59:14.186Z,10.17
2023-05-24T22:01:40.859Z,10.14
2023-05-24T22:04:09.095Z,10.12
2023-05-24T22:06:36.411Z,10.10
2023-05-24T22:09:02.926Z,10.00
2023-05-24T22:11:29.410Z,9.98
2023-05-24T22:13:56.608Z,9.93
2023-05-24T22:16:24.036Z,9.91
2023-05-24T22:18:55.453Z,9.91
2023-05-24T22:21:22.740Z,9.87
2023-05-24T22:23:51.424Z,9.88
2023-05-24T22:26:17.956Z,9.85
2023-05-24T22:28:50.918Z,9.80
2023-05-24T22:31:19.911Z,9.72
2023-05-24T22:33:49.899Z,9.74
2023-05-24T22:36:16.769Z,9.71
2023-05-24T22:38:44.202Z,9.67
2023-05-24T22:41:10.920Z,9.66
2023-05-24T22:43:37.449Z,9.65
2023-05-24T22:46:07.588Z,9.59
2023-05-24T22:48:35.501Z,9.56
2023-05-24T22:51:02.161Z,9.52
2023-05-24T22:53:28.801Z,9.46
2023-05-24T22:55:55.537Z,9.44
2023-05-24T22:58:23.512Z,9.43
2023-05-24T23:00:51.249Z,9.43
2023-05-24T23:03:18.138Z,9.37
2023-05-24T23:05:45.649Z,9.39
2023-05-24T23:08:15.477Z,9.34
2023-05-24T23:10:48.513Z,9.33
2023-05-24T23:13:19.144Z,9.30
2023-05-24T23:15:46.871Z,9.28
2023-05-24T23:18:16.310Z,9.25
2023-05-24T23:20:44.280Z,9.22
2023-05-24T23:23:11.212Z,9.22
2023-05-24T23:25:37.826Z,9.19
2023-05-24T23:28:04.701Z,9.17
2023-05-24T23:30:31.339Z,9.09
2023-05-24T23:32:57.940Z,9.09
2023-05-24T23:35:24.464Z,9.11
2023-05-24T23:37:50.957Z,9.10
2023-05-24T23:40:17.506Z,9.05
2023-05-24T23:42:44.050Z,9.00
2023-05-24T23:45:10.993Z,8.98
2023-05-24T23:47:37.542Z,8.97
2023-05-24T23:50:04.372Z,8.98
2023-05-24T23:52:31.244Z,8.92
2023-05-24T23:54:57.909Z,8.90
2023-05-24T23:57:24.972Z,8.91
2023-05-24T23:59:51.445Z,8.87
